Time;durP1;ratioP1;P1;durP2;ratioP2;P2;SDS_P1;SDS_P2;PMS_P1;PMS_P2;Temp;Humidity;BMP_temperature;BMP_pressure;BME280_temperature;BME280_humidity;BME280_pressure;Samples;Min_cycle;Max_cycle;Signal;HPM_P1;HPM_P2
2023/06/23 00:00:23;;;;;;;3.05;0.90;;;21.40;95.10;;;;;;5002440;28;20260;-73
2023/06/23 05:03:24;;;;;;;9.93;8.13;;;;;;;;;;5172735;23;20038;-77
2023/06/23 05:05:56;;;;;;;12.10;9.05;;;;;;;;;;5031866;28;20025;-77
2023/06/23 05:08:25;;;;;;;12.68;9.23;;;;;;;;;;5047014;28;20219;-73
2023/06/23 05:10:53;;;;;;;14.48;10.20;;;;;;;;;;5046569;28;20322;-73
2023/06/23 05:13:22;;;;;;;12.73;9.25;;;;;;;;;;5046276;28;20036;-75
2023/06/23 05:15:49;;;;;;;;;;;;;;;;;;5028771;28;20045;-74
2023/06/23 05:18:18;;;;;;;13.95;10.07;;;;;;;;;;5045482;28;19912;-77
2023/06/23 05:20:46;;;;;;;15.55;11.57;;;;;;;;;;5045757;28;20224;-74
2023/06/23 05:23:15;;;;;;;15.68;10.88;;;;;;;;;;5045474;28;20026;-75
2023/06/23 05:25:44;;;;;;;16.85;11.02;;;;;;;;;;5042027;28;20060;-74
2023/06/23 05:28:13;;;;;;;15.38;11.15;;;;;;;;;;5045973;28;20204;-75
2023/06/23 05:30:42;;;;;;;16.92;10.68;;;;;;;;;;5046023;28;20029;-75
2023/06/23 05:33:11;;;;;;;17.55;11.85;;;;;;;;;;5045679;28;20033;-75
2023/06/23 05:35:39;;;;;;;15.93;12.15;;;;;;;;;;5045652;28;20037;-74
2023/06/23 05:38:06;;;;;;;26.95;13.50;;;;;;;;;;5045832;28;20025;-75
2023/06/23 05:40:33;;;;;;;18.40;12.20;;;;;;;;;;5045313;28;20266;-76
2023/06/23 05:43:01;;;;;;;24.83;13.32;;;;;;;;;;5045235;28;20045;-76
2023/06/23 05:45:28;;;;;;;18.27;13.93;;;;;;;;;;5038816;28;20043;-75
2023/06/23 05:48:04;;;;;;;21.17;13.27;;;;;;;;;;5045718;28;20017;-76
2023/06/23 05:50:36;;;;;;;28.13;15.40;;;;;;;;;;5045171;28;20033;-75
2023/06/23 05:53:05;;;;;;;21.08;14.43;;;;;;;;;;5045311;28;20092;-74
2023/06/23 05:55:34;;;;;;;21.77;15.70;;;;;;;;;;5044216;28;20029;-76
2023/06/23 05:58:02;;;;;;;21.70;15.05;;;;;;;;;;5044756;28;20143;-74
2023/06/23 06:00:38;;;;;;;38.10;16.63;;;;;;;;;;5044553;28;20029;-75
2023/06/23 06:03:08;;;;;;;20.25;14.93;;;;;;;;;;5027249;28;20193;-73
2023/06/23 06:05:36;;;;;;;19.88;14.10;;;;;;;;;;5036855;28;20041;-75
2023/06/23 06:08:04;;;;;;;18.00;13.73;;;;;;;;;;5025043;28;20096;-75
2023/06/23 06:10:32;;;;;;;22.83;15.00;;;;;;;;;;5024890;28;20025;-73
2023/06/23 06:13:01;;;;;;;22.80;14.43;;;;;;;;;;5024887;28;20362;-78
2023/06/23 06:15:28;;;;;;;20.25;13.82;;;;;;;;;;5024315;28;20022;-74
2023/06/23 06:17:56;;;;;;;26.83;15.27;;;;;;;;;;5007702;28;20042;-75
2023/06/23 06:20:23;;;;;;;20.40;14.63;;;;;;;;;;5024292;28;20018;-74
2023/06/23 06:22:51;;;;;;;18.53;13.30;;;;;;;;;;5024720;28;20040;-75
2023/06/23 06:25:19;;;;;;;17.52;13.35;;;;;;;;;;5024523;28;20088;-74
2023/06/23 06:27:48;;;;;;;17.20;13.15;;;;;;;;;;5025492;28;20188;-75
2023/06/23 06:30:16;;;;;;;23.65;13.02;;;;;;;;;;5044576;28;20030;-77
2023/06/23 06:32:43;;;;;;;19.45;13.80;;;;;;;;;;5044763;28;20013;-75
2023/06/23 06:35:12;;;;;;;20.33;12.77;;;;;;;;;;5023431;28;20036;-77
2023/06/23 06:37:41;;;;;;;;;;;;;;;;;;5024767;28;20101;-76
2023/06/23 06:40:10;;;;;;;18.02;11.52;;;;;;;;;;5024623;28;19902;-77
2023/06/23 06:42:37;;;;;;;22.85;11.80;;;;;;;;;;5024124;28;20038;-74
2023/06/23 06:45:05;;;;;;;16.17;11.07;;;;;;;;;;5006711;28;20251;-75
2023/06/23 06:47:33;;;;;;;18.00;13.63;;;;;;;;;;5029462;28;20109;-75
2023/06/23 06:50:02;;;;;;;17.05;13.18;;;;;;;;;;5044237;28;20307;-74
2023/06/23 06:52:29;;;;;;;16.13;11.27;;;;;;;;;;5043746;28;20040;-75
2023/06/23 06:54:56;;;;;;;15.63;12.67;;;;;;;;;;5027019;28;20068;-76
2023/06/23 06:57:24;;;;;;;20.52;13.38;;;;;;;;;;5043330;28;20044;-76
2023/06/23 06:59:51;;;;;;;18.63;13.38;;;;;;;;;;5035035;28;20037;-75
2023/06/23 07:02:18;;;;;;;18.17;12.80;;;;;;;;;;5023023;28;20186;-75
2023/06/23 07:04:44;;;;;;;15.75;12.43;;;;;;;;;;5006348;28;20456;-76
2023/06/23 07:07:13;;;;;;;15.63;12.43;;;;;;;;;;5023370;28;20026;-74
2023/06/23 07:09:39;;;;;;;16.70;13.32;;;;;;;;;;5027849;28;20021;-77
2023/06/23 07:12:06;;;;;;;19.60;13.38;;;;;;;;;;5034076;28;20025;-74
2023/06/23 07:14:32;;;;;;;16.63;12.23;;;;;;;;;;5023739;28;20338;-74
2023/06/23 07:16:58;;;;;;;16.67;12.85;;;;;;;;;;5023776;28;20052;-75
2023/06/23 07:19:26;;;;;;;17.13;12.48;;;;;;;;;;5005808;28;20097;-77
2023/06/23 07:21:53;;;;;;;16.90;12.43;;;;;;;;;;5023331;28;20048;-76
2023/06/23 07:24:23;;;;;;;16.27;11.43;;;;;;;;;;5023249;28;20033;-77
2023/06/23 07:26:50;;;;;;;16.77;12.23;;;;;;;;;;5023637;28;20041;-77
2023/06/23 07:29:16;;;;;;;16.23;12.25;;;;;;;;;;5006167;28;20028;-78
2023/06/23 07:31:42;;;;;;;13.35;10.70;;;;;;;;;;5022959;28;20071;-76
2023/06/23 07:34:11;;;;;;;16.92;12.65;;;;;;;;;;5013190;28;20092;-75
2023/06/23 07:36:38;;;;;;;26.13;13.68;;;;;;;;;;5024972;28;20212;-76
2023/06/23 07:39:04;;;;;;;24.25;12.75;;;;;;;;;;5043339;28;20338;-75
2023/06/23 07:41:31;;;;;;;15.15;11.20;;;;;;;;;;5042523;28;20021;-77
2023/06/23 07:43:57;;;;;;;16.45;12.02;;;;;;;;;;5043512;28;20045;-77
2023/06/23 07:46:23;;;;;;;16.10;11.82;;;;;;;;;;5042515;28;20025;-76
2023/06/23 07:48:49;;;;;;;20.92;12.68;;;;;;;;;;5014908;28;20101;-78
2023/06/23 07:51:15;;;;;;;16.33;10.73;;;;;;;;;;5023369;28;20033;-78
2023/06/23 07:53:41;;;;;;;15.75;10.63;;;;;;;;;;5005328;28;20018;-78
2023/06/23 07:56:07;;;;;;;14.57;10.70;;;;;;;;;;5023390;28;20030;-76
2023/06/23 07:58:34;;;;;;;14.10;10.32;;;;;;;;;;5022890;28;20053;-75
2023/06/23 08:01:00;;;;;;;14.57;10.30;;;;;;;;;;5023217;28;20026;-75
2023/06/23 08:03:26;;;;;;;11.90;9.48;;;;;;;;;;5004925;28;20057;-75
2023/06/23 08:05:52;;;;;;;13.93;11.00;;;;;;;;;;5023143;28;20060;-75
2023/06/23 08:08:18;;;;;;;12.88;8.70;;;;;;;;;;5022890;28;20025;-77
2023/06/23 08:10:44;;;;;;;11.15;8.35;;;;;;;;;;5005269;28;20030;-71
2023/06/23 08:13:10;;;;;;;14.23;9.43;;;;;;;;;;5022776;28;20026;-72
2023/06/23 08:15:36;;;;;;;14.32;8.30;;;;;;;;;;5022368;28;20030;-71
2023/06/23 08:18:02;;;;;;;12.98;10.05;;;;;;;;;;5022830;28;20072;-72
2023/06/23 08:20:29;;;;;;;11.75;8.20;;;;;;;;;;5027235;28;20085;-71
2023/06/23 08:22:55;;;;;;;11.82;8.20;;;;;;;;;;5029269;28;20033;-71
2023/06/23 08:25:21;;;;;;;11.48;8.13;;;;;;;;;;5012126;28;20303;-73
2023/06/23 08:27:47;;;;;;;11.52;7.50;;;;;;;;;;5029310;28;20044;-73
2023/06/23 08:30:15;;;;;;;11.88;9.02;;;;;;;;;;5029236;28;20037;-73
2023/06/23 08:32:41;;;;;;;11.98;8.40;;;;;;;;;;5028800;28;20034;-73
2023/06/23 08:35:07;;;;;;;13.18;7.75;;;;;;;;;;5044777;28;20021;-73
2023/06/23 08:37:33;;;;;;;12.15;7.55;;;;;;;;;;5047677;28;20377;-72
2023/06/23 08:39:59;;;;;;;10.20;7.90;;;;;;;;;;5049442;28;20029;-72
2023/06/23 08:42:26;;;;;;;10.38;7.40;;;;;;;;;;5048880;28;20036;-71
2023/06/23 08:44:52;;;;;;;12.98;7.97;;;;;;;;;;5049264;28;20307;-72
2023/06/23 08:47:19;;;;;;;9.82;7.72;;;22.70;93.30;;;;;;5049153;28;20027;-72
2023/06/23 08:49:48;;;;;;;14.25;7.18;;;22.80;94.40;;;;;;5029706;28;20048;-74
2023/06/23 08:52:14;;;;;;;;;;;22.90;94.20;;;;;;5012384;28;20291;-71
2023/06/23 08:54:41;;;;;;;11.27;8.65;;;22.90;94.00;;;;;;5028915;28;19905;-71
2023/06/23 08:57:08;;;;;;;11.32;8.00;;;22.70;93.70;;;;;;5011413;28;20029;-74
2023/06/23 08:59:33;;;;;;;10.50;7.93;;;22.70;93.80;;;;;;5028531;28;20030;-70
2023/06/23 09:01:59;;;;;;;9.48;6.70;;;22.80;93.70;;;;;;5028844;28;20066;-71
2023/06/23 09:04:25;;;;;;;11.45;7.80;;;22.90;93.50;;;;;;5028038;28;20032;-72
2023/06/23 09:06:51;;;;;;;11.20;7.82;;;23.20;93.00;;;;;;5028580;28;20331;-75
2023/06/23 09:09:18;;;;;;;11.35;7.65;;;23.30;93.10;;;;;;5028831;28;20026;-72
2023/06/23 09:11:44;;;;;;;10.23;7.97;;;23.50;92.70;;;;;;5028441;28;20046;-72
2023/06/23 09:14:11;;;;;;;11.75;7.63;;;23.60;92.40;;;;;;5028909;28;20030;-72
2023/06/23 09:16:39;;;;;;;10.60;7.65;;;23.40;92.40;;;;;;5010520;28;20061;-71
2023/06/23 09:19:06;;;;;;;10.73;7.80;;;23.10;92.30;;;;;;5028617;28;20056;-75
2023/06/23 09:21:36;;;;;;;10.10;7.30;;;22.90;92.70;;;;;;5027885;28;20026;-75
2023/06/23 09:24:06;;;;;;;9.05;6.75;;;23.20;92.70;;;;;;5028450;28;20312;-72
2023/06/23 09:26:56;;;;;;;10.45;7.47;;;23.50;92.30;;;;;;5010717;28;20064;-72
2023/06/23 09:29:24;;;;;;;10.95;6.82;;;23.90;91.60;;;;;;5028188;28;20026;-72
2023/06/23 09:31:52;;;;;;;10.20;6.95;;;23.60;91.40;;;;;;5025131;28;20037;-74
2023/06/23 09:34:23;;;;;;;9.43;6.70;;;23.40;91.00;;;;;;5034007;28;20218;-70
2023/06/23 09:36:49;;;;;;;9.90;6.30;;;23.40;91.00;;;;;;5026935;28;20323;-72
2023/06/23 09:39:16;;;;;;;10.27;6.18;;;23.70;90.60;;;;;;5045071;28;20028;-71
2023/06/23 09:41:54;;;;;;;12.07;6.35;;;23.90;90.40;;;;;;5044364;28;20022;-74
2023/06/23 09:44:20;;;;;;;9.60;6.68;;;23.90;90.20;;;;;;5045147;28;20075;-73
2023/06/23 09:46:46;;;;;;;8.73;6.18;;;23.90;90.50;;;;;;5044036;28;20565;-77
2023/06/23 09:49:12;;;;;;;9.18;6.20;;;23.80;90.80;;;;;;5030590;28;20049;-74
2023/06/23 09:51:45;;;;;;;8.70;5.97;;;23.60;90.90;;;;;;5024490;28;20319;-72
2023/06/23 09:54:11;;;;;;;7.00;5.15;;;23.50;89.90;;;;;;5024667;28;20316;-73
2023/06/23 09:56:37;;;;;;;7.68;5.13;;;23.50;89.00;;;;;;5024633;28;20100;-72
2023/06/23 09:59:02;;;;;;;6.65;5.10;;;23.70;89.20;;;;;;5025028;28;20088;-74
2023/06/23 10:01:28;;;;;;;7.40;5.15;;;24.20;88.90;;;;;;5024388;28;20030;-73
2023/06/23 10:03:55;;;;;;;7.47;4.43;;;24.10;87.20;;;;;;5024942;28;20084;-73
2023/06/23 10:06:22;;;;;;;10.50;5.20;;;23.80;86.20;;;;;;5025214;28;20057;-72
2023/06/23 10:08:48;;;;;;;7.15;5.20;;;23.90;86.70;;;;;;5024801;28;20040;-72
2023/06/23 10:11:18;;;;;;;8.73;5.00;;;24.10;86.20;;;;;;5043141;28;20028;-73
2023/06/23 10:13:46;;;;;;;6.53;4.43;;;23.90;84.90;;;;;;5043977;28;20037;-72
2023/06/23 10:16:12;;;;;;;5.63;4.13;;;23.90;85.00;;;;;;5044469;28;20069;-75
2023/06/23 10:18:38;;;;;;;7.45;4.95;;;24.10;82.40;;;;;;5044033;28;20208;-72
2023/06/23 10:21:05;;;;;;;7.25;4.22;;;24.50;81.40;;;;;;5026494;28;20060;-72
2023/06/23 10:23:32;;;;;;;6.63;4.80;;;24.80;80.90;;;;;;5043621;28;20041;-72
2023/06/23 10:26:00;;;;;;;7.47;5.30;;;24.90;81.00;;;;;;5044388;28;20016;-74
2023/06/23 10:28:28;;;;;;;8.27;4.87;;;24.70;81.00;;;;;;5044298;28;20049;-71
2023/06/23 10:30:54;;;;;;;;;;;24.70;80.80;;;;;;5045131;28;20413;-73
2023/06/23 10:33:21;;;;;;;6.28;5.10;;;24.90;80.40;;;;;;5026471;28;19912;-73
2023/06/23 10:35:48;;;;;;;8.77;5.88;;;24.90;81.60;;;;;;5043893;28;20041;-74
2023/06/23 10:38:20;;;;;;;6.95;5.40;;;24.70;81.60;;;;;;5044223;28;20155;-73
2023/06/23 10:40:50;;;;;;;6.30;4.82;;;24.40;83.00;;;;;;5043594;28;20097;-73
2023/06/23 10:43:18;;;;;;;7.25;5.13;;;24.20;82.50;;;;;;5040229;28;20053;-72
2023/06/23 10:45:45;;;;;;;6.78;4.60;;;23.90;83.00;;;;;;5023765;28;20053;-73
2023/06/23 10:48:11;;;;;;;6.30;4.65;;;23.80;82.90;;;;;;5024292;28;20062;-74
2023/06/23 10:50:39;;;;;;;5.85;4.43;;;23.60;83.40;;;;;;5023572;28;20022;-74
2023/06/23 10:53:16;;;;;;;7.07;4.80;;;23.50;84.30;;;;;;5007004;28;20022;-72
2023/06/23 10:55:44;;;;;;;6.85;5.47;;;23.50;84.20;;;;;;5024017;28;20387;-74
2023/06/23 10:58:11;;;;;;;7.88;5.22;;;23.70;84.90;;;;;;5024126;28;20060;-73
2023/06/23 11:00:37;;;;;;;6.57;4.65;;;23.80;84.20;;;;;;5023928;28;20296;-72
2023/06/23 11:03:08;;;;;;;6.72;4.43;;;23.90;84.00;;;;;;5006330;28;20042;-72
2023/06/23 11:05:39;;;;;;;7.78;4.70;;;24.10;80.70;;;;;;4986434;28;20105;-74
2023/06/23 11:08:09;;;;;;;5.35;4.10;;;24.30;80.20;;;;;;5005395;28;20209;-72
2023/06/23 11:10:56;;;;;;;7.53;4.45;;;24.60;80.10;;;;;;5016824;28;20035;-72
2023/06/23 11:13:31;;;;;;;7.30;5.25;;;24.80;79.60;;;;;;5023646;28;20117;-73
2023/06/23 11:16:00;;;;;;;6.85;5.20;;;24.60;79.20;;;;;;5023674;28;20049;-71
2023/06/23 11:18:28;;;;;;;7.20;4.70;;;24.30;80.60;;;;;;5023651;28;20042;-72
2023/06/23 11:21:00;;;;;;;7.40;4.87;;;24.10;82.50;;;;;;5022917;28;20026;-75
2023/06/23 11:23:25;;;;;;;6.35;4.70;;;24.20;82.20;;;;;;5011930;28;20046;-75
2023/06/23 11:25:53;;;;;;;6.90;5.00;;;24.20;81.90;;;;;;5003253;28;20037;-73
2023/06/23 11:28:38;;;;;;;7.50;5.03;;;24.40;82.30;;;;;;5003888;28;20018;-73
2023/06/23 11:31:20;;;;;;;8.05;4.68;;;24.80;81.10;;;;;;5003647;28;20250;-73
2023/06/23 11:33:55;;;;;;;8.80;4.43;;;25.10;79.30;;;;;;5011944;28;20029;-74
2023/06/23 11:36:23;;;;;;;8.52;4.25;;;25.40;77.80;;;;;;5006499;28;20037;-73
2023/06/23 11:38:50;;;;;;;6.82;3.97;;;26.20;75.50;;;;;;5023190;28;20084;-75
2023/06/23 11:41:30;;;;;;;7.00;4.20;;;26.30;75.20;;;;;;5014499;28;20026;-74
2023/06/23 11:44:03;;;;;;;5.90;4.40;;;26.50;75.60;;;;;;5006487;28;20361;-75
2023/06/23 11:46:33;;;;;;;5.50;3.70;;;26.80;75.10;;;;;;5003566;28;20030;-73
2023/06/23 11:49:08;;;;;;;6.50;3.67;;;27.40;72.90;;;;;;5004496;28;20030;-73
2023/06/23 11:51:35;;;;;;;5.38;3.22;;;28.00;72.40;;;;;;5022960;28;20052;-74
2023/06/23 11:54:01;;;;;;;4.97;3.20;;;28.00;69.20;;;;;;5022867;28;20024;-73
2023/06/23 11:56:27;;;;;;;6.57;3.08;;;27.70;69.80;;;;;;5022980;28;20061;-74
2023/06/23 11:58:56;;;;;;;6.63;3.47;;;27.90;70.50;;;;;;5022451;28;20128;-74
2023/06/23 12:01:23;;;;;;;4.50;3.60;;;27.60;69.60;;;;;;5021677;28;20338;-75
2023/06/23 12:03:52;;;;;;;5.40;3.53;;;26.90;72.00;;;;;;5039571;28;20382;-75
2023/06/23 12:06:19;;;;;;;6.53;4.50;;;26.30;73.90;;;;;;5026712;28;20076;-75
2023/06/23 12:08:51;;;;;;;5.47;4.55;;;25.60;75.00;;;;;;5041851;28;20029;-73
2023/06/23 12:11:18;;;;;;;8.25;4.43;;;25.30;76.50;;;;;;5023783;28;20034;-75
2023/06/23 12:13:48;;;;;;;8.57;4.28;;;25.60;76.70;;;;;;5024546;28;20040;-75
2023/06/23 12:16:14;;;;;;;5.90;3.95;;;27.40;74.10;;;;;;5033120;28;20036;-73
2023/06/23 12:18:52;;;;;;;5.25;4.13;;;29.30;71.10;;;;;;5034302;28;20084;-74
2023/06/23 12:21:20;;;;;;;5.50;3.40;;;31.60;66.90;;;;;;5042869;28;20029;-73
2023/06/23 12:23:46;;;;;;;6.53;3.55;;;32.10;64.60;;;;;;5042194;28;20033;-73
2023/06/23 12:26:14;;;;;;;4.28;3.47;;;32.00;63.30;;;;;;5042933;28;20033;-73
2023/06/23 12:28:40;;;;;;;3.85;3.05;;;30.70;62.80;;;;;;5031245;28;20029;-71
2023/06/23 12:31:06;;;;;;;4.88;2.95;;;29.30;65.10;;;;;;5042564;28;20040;-75
2023/06/23 12:33:33;;;;;;;3.90;3.00;;;28.20;67.10;;;;;;5024984;28;20049;-75
2023/06/23 12:36:07;;;;;;;4.80;3.40;;;27.20;69.10;;;;;;5023027;28;20022;-71
2023/06/23 12:38:37;;;;;;;5.10;3.80;;;26.60;71.20;;;;;;5022257;28;20045;-72
2023/06/23 12:41:27;;;;;;;6.75;3.97;;;26.10;73.00;;;;;;5023323;28;20068;-74
2023/06/23 12:43:55;;;;;;;4.72;3.45;;;27.00;71.80;;;;;;5022170;28;20045;-71
2023/06/23 12:46:25;;;;;;;6.88;3.58;;;28.50;69.40;;;;;;5022593;28;20041;-71
2023/06/23 12:48:51;;;;;;;6.32;3.10;;;30.10;66.80;;;;;;5022460;28;20377;-73
2023/06/23 12:51:17;;;;;;;4.22;3.20;;;31.30;64.10;;;;;;5031805;28;20021;-73
2023/06/23 12:53:43;;;;;;;3.90;2.85;;;32.40;61.70;;;;;;5042211;28;20103;-74
2023/06/23 12:56:11;;;;;;;6.25;3.08;;;32.00;61.20;;;;;;5024779;28;20307;-78
2023/06/23 12:58:37;;;;;;;5.30;3.23;;;31.10;62.20;;;;;;5041811;28;20037;-73
2023/06/23 13:01:03;;;;;;;4.38;3.20;;;30.00;63.30;;;;;;5042439;28;20030;-74
2023/06/23 13:03:32;;;;;;;4.85;3.35;;;29.40;64.80;;;;;;5042281;28;20076;-73
2023/06/23 13:05:57;;;;;;;5.10;3.22;;;29.80;65.20;;;;;;5042691;28;20033;-75
2023/06/23 13:08:23;;;;;;;4.10;3.17;;;30.60;64.10;;;;;;5028385;28;20021;-73
2023/06/23 13:10:49;;;;;;;6.38;3.30;;;31.60;62.50;;;;;;5033903;28;20255;-77
2023/06/23 13:13:15;;;;;;;5.30;2.55;;;33.00;60.10;;;;;;5025379;28;20028;-73
2023/06/23 13:15:42;;;;;;;4.72;2.58;;;34.20;58.60;;;;;;5025865;28;20033;-73
2023/06/23 13:18:08;;;;;;;3.22;2.33;;;34.80;57.00;;;;;;5026288;28;20092;-73
2023/06/23 13:20:34;;;;;;;4.30;2.30;;;35.70;63.50;;;;;;5007988;28;20032;-75
2023/06/23 13:23:00;;;;;;;2.97;2.13;;;36.10;61.50;;;;;;5026227;28;20038;-74
2023/06/23 13:25:25;;;;;;;6.72;2.20;;;36.20;59.00;;;;;;5026056;28;20189;-73
2023/06/23 13:27:51;;;;;;;5.80;2.20;;;36.60;53.50;;;;;;5014873;28;20407;-74
2023/06/23 13:30:17;;;;;;;3.00;1.98;;;36.30;55.50;;;;;;5024709;28;20034;-76
2023/06/23 13:32:43;;;;;;;2.60;1.80;;;37.10;55.00;;;;;;5025374;28;20033;-72
2023/06/23 13:35:09;;;;;;;3.20;1.75;;;37.10;53.40;;;;;;5041468;28;20029;-74
2023/06/23 13:37:37;;;;;;;3.03;1.90;;;36.10;54.50;;;;;;5045001;28;20037;-74
2023/06/23 13:40:12;;;;;;;2.70;2.00;;;35.80;54.80;;;;;;5045840;28;20045;-74
2023/06/23 13:42:42;;;;;;;2.92;1.90;;;35.60;55.10;;;;;;5044956;28;20088;-76
2023/06/23 13:45:09;;;;;;;3.13;1.92;;;36.90;53.90;;;;;;5045529;28;20037;-74
2023/06/23 13:47:40;;;;;;;3.22;2.13;;;35.60;53.50;;;;;;5043473;28;20207;-75
2023/06/23 13:50:14;;;;;;;3.97;2.38;;;34.40;54.70;;;;;;5027767;28;20038;-75
2023/06/23 13:52:41;;;;;;;2.92;1.90;;;33.00;56.80;;;;;;5025513;28;20029;-75
2023/06/23 13:55:09;;;;;;;3.70;2.38;;;32.30;57.20;;;;;;5025758;28;20040;-74
2023/06/23 13:57:37;;;;;;;3.15;2.00;;;31.40;58.40;;;;;;5007448;28;20270;-78
2023/06/23 14:00:05;;;;;;;3.53;2.35;;;30.90;59.40;;;;;;5025658;28;20419;-78
2023/06/23 14:02:32;;;;;;;6.72;3.25;;;30.40;60.10;;;;;;5025791;28;20104;-75
2023/06/23 14:04:58;;;;;;;4.50;2.22;;;29.70;60.20;;;;;;5008395;28;20303;-76
2023/06/23 14:07:25;;;;;;;4.22;2.22;;;29.00;61.20;;;;;;5025863;28;20030;-74
2023/06/23 14:09:51;;;;;;;4.10;2.60;;;28.50;62.10;;;;;;5035524;28;20017;-75
2023/06/23 14:12:17;;;;;;;3.53;2.38;;;28.30;63.00;;;;;;5045629;28;20032;-75
2023/06/23 14:14:43;;;;;;;3.42;2.40;;;28.60;62.70;;;;;;5044818;28;20026;-76
2023/06/23 14:17:09;;;;;;;3.20;2.15;;;29.20;62.00;;;;;;5027109;28;20136;-76
2023/06/23 14:19:34;;;;;;;3.05;2.22;;;31.70;59.30;;;;;;5027212;28;20069;-73
2023/06/23 14:22:00;;;;;;;2.85;1.98;;;34.00;56.80;;;;;;5025138;28;20101;-75
2023/06/23 14:24:27;;;;;;;3.53;2.00;;;34.60;56.10;;;;;;5025221;28;20034;-74
2023/06/23 14:26:53;;;;;;;3.15;1.77;;;33.80;56.00;;;;;;5024444;28;20296;-76
2023/06/23 14:29:19;;;;;;;4.20;2.00;;;33.60;56.00;;;;;;5027285;28;20037;-73
2023/06/23 14:31:44;;;;;;;3.33;1.83;;;33.30;55.60;;;;;;5025463;28;20036;-74
2023/06/23 14:34:10;;;;;;;3.58;2.03;;;34.30;54.90;;;;;;5032259;28;20029;-75
2023/06/23 14:36:36;;;;;;;6.85;2.00;;;35.70;54.70;;;;;;5043900;28;20041;-74
2023/06/23 14:39:02;;;;;;;3.10;2.17;;;37.20;52.40;;;;;;5044500;28;20025;-75
2023/06/23 14:41:28;;;;;;;4.93;2.20;;;36.90;52.10;;;;;;5044470;28;20030;-73
2023/06/23 14:43:55;;;;;;;3.92;2.47;;;35.80;53.20;;;;;;5044055;28;20072;-73
2023/06/23 14:46:21;;;;;;;2.75;2.10;;;34.40;54.30;;;;;;5044510;28;20048;-73
2023/06/23 14:48:46;;;;;;;4.28;2.55;;;32.80;56.10;;;;;;5042383;28;20371;-73
2023/06/23 14:51:15;;;;;;;4.57;2.70;;;31.90;57.40;;;;;;5027225;28;20096;-72
2023/06/23 14:53:42;;;;;;;4.78;2.28;;;31.30;58.20;;;;;;5024000;28;20199;-73
2023/06/23 14:56:10;;;;;;;5.18;1.90;;;32.00;58.30;;;;;;5007126;28;20041;-73
2023/06/23 14:58:36;;;;;;;4.50;2.30;;;34.40;55.60;;;;;;5023923;28;20097;-74
2023/06/23 15:01:02;;;;;;;3.50;2.25;;;36.70;53.20;;;;;;5024252;28;20041;-73
2023/06/23 15:03:31;;;;;;;3.58;2.40;;;39.00;50.20;;;;;;5032623;28;20091;-72
2023/06/23 15:05:57;;;;;;;4.18;2.30;;;;;;;;;;5025717;28;20219;-75
2023/06/23 15:08:23;;;;;;;3.10;1.90;;;39.50;50.90;;;;;;5031059;28;20064;-73
2023/06/23 15:10:52;;;;;;;3.05;2.17;;;39.90;50.80;;;;;;5038416;28;20025;-74
2023/06/23 15:13:17;;;;;;;2.50;2.10;;;40.10;47.80;;;;;;5026613;28;20176;-74
2023/06/23 15:15:43;;;;;;;3.15;2.25;;;40.60;45.50;;;;;;5038026;28;20068;-76
2023/06/23 15:18:09;;;;;;;3.55;2.42;;;41.50;44.30;;;;;;5024112;28;20029;-73
2023/06/23 15:20:34;;;;;;;5.28;2.35;;;41.60;44.40;;;;;;5023378;28;20057;-73
2023/06/23 15:23:01;;;;;;;2.65;1.92;;;41.40;44.20;;;;;;5023945;28;20034;-73
2023/06/23 15:25:27;;;;;;;3.10;1.98;;;41.30;43.70;;;;;;5024135;28;20030;-75
2023/06/23 15:27:52;;;;;;;3.03;2.20;;;41.00;44.00;;;;;;5023759;28;20038;-71
2023/06/23 15:30:18;;;;;;;3.63;2.17;;;41.00;44.00;;;;;;5023472;28;20085;-74
2023/06/23 15:32:44;;;;;;;5.03;2.03;;;41.50;43.80;;;;;;5023118;28;20041;-74
2023/06/23 15:35:10;;;;;;;2.70;2.00;;;41.60;43.80;;;;;;5006774;28;20038;-75
2023/06/23 15:37:40;;;;;;;3.67;2.10;;;42.90;43.10;;;;;;5023425;28;20026;-75
2023/06/23 15:40:13;;;;;;;2.88;2.20;;;42.30;42.60;;;;;;5023917;28;20504;-73
2023/06/23 15:42:39;;;;;;;3.30;2.45;;;40.50;44.40;;;;;;5023103;28;20026;-73
2023/06/23 15:45:05;;;;;;;3.75;2.20;;;38.00;46.40;;;;;;5023381;28;20029;-76
2023/06/23 15:47:32;;;;;;;3.25;2.42;;;36.00;47.70;;;;;;5023564;28;20045;-76
2023/06/23 15:49:58;;;;;;;4.13;2.50;;;34.50;48.90;;;;;;5022879;28;20037;-75
2023/06/23 15:52:24;;;;;;;3.55;2.38;;;33.30;50.00;;;;;;5023613;28;20089;-75
2023/06/23 15:54:50;;;;;;;4.75;2.50;;;33.30;50.50;;;;;;5023257;28;20033;-76
2023/06/23 15:57:16;;;;;;;3.40;2.22;;;34.90;49.20;;;;;;5023257;28;20037;-75
2023/06/23 15:59:43;;;;;;;2.63;2.00;;;36.30;48.00;;;;;;5023076;28;20022;-75
2023/06/23 16:02:09;;;;;;;3.40;1.98;;;37.00;47.20;;;;;;5023250;28;20061;-75
2023/06/23 16:04:35;;;;;;;5.03;2.00;;;38.50;46.00;;;;;;5023459;28;20045;-75
2023/06/23 16:07:01;;;;;;;3.03;2.08;;;38.40;45.00;;;;;;5022968;28;20022;-75
2023/06/23 16:09:27;;;;;;;3.42;2.22;;;36.80;45.80;;;;;;5026673;28;20026;-74
2023/06/23 16:11:52;;;;;;;4.07;2.40;;;34.50;47.90;;;;;;5042339;28;20193;-75
2023/06/23 16:14:18;;;;;;;3.85;1.92;;;33.80;49.50;;;;;;5043233;28;20032;-76
2023/06/23 16:16:44;;;;;;;3.40;2.10;;;33.50;49.70;;;;;;5042455;28;20067;-72
2023/06/23 16:19:10;;;;;;;3.42;2.38;;;33.30;49.60;;;;;;5043072;28;20043;-74
2023/06/23 16:21:36;;;;;;;4.85;2.10;;;34.30;49.30;;;;;;5043315;28;20029;-75
2023/06/23 16:24:02;;;;;;;4.15;2.20;;;35.60;47.90;;;;;;5043227;28;20084;-72
2023/06/23 16:26:30;;;;;;;3.55;2.10;;;36.90;47.10;;;;;;5042999;28;20059;-73
2023/06/23 16:28:55;;;;;;;3.67;2.07;;;38.00;45.80;;;;;;5042742;28;20021;-73
2023/06/23 16:31:21;;;;;;;3.67;2.28;;;37.90;44.70;;;;;;5042888;28;20052;-76
2023/06/23 16:33:48;;;;;;;4.15;2.28;;;38.00;44.90;;;;;;5042567;28;20417;-74
2023/06/23 16:36:14;;;;;;;2.60;1.65;;;37.90;45.50;;;;;;5025381;28;20203;-73
2023/06/23 16:38:40;;;;;;;3.38;1.85;;;38.60;44.50;;;;;;5042411;28;20029;-73
2023/06/23 16:41:05;;;;;;;2.88;2.13;;;39.10;44.20;;;;;;5044577;28;20215;-73
2023/06/23 16:43:32;;;;;;;3.30;1.90;;;39.00;44.50;;;;;;5046668;28;20029;-72
2023/06/23 16:45:58;;;;;;;2.20;1.50;;;39.30;43.60;;;;;;5046213;28;20072;-75
2023/06/23 16:48:24;;;;;;;2.95;1.70;;;39.10;43.50;;;;;;5046538;28;20038;-74
2023/06/23 16:50:50;;;;;;;4.22;2.08;;;39.20;43.30;;;;;;5046066;28;20097;-74
2023/06/23 16:53:16;;;;;;;3.38;1.80;;;38.90;44.00;;;;;;5046657;28;20319;-72
2023/06/23 16:55:42;;;;;;;4.25;2.28;;;38.70;43.60;;;;;;5044782;28;20055;-73
2023/06/23 16:58:08;;;;;;;3.00;1.95;;;37.90;44.50;;;;;;5026871;28;20216;-73
2023/06/23 17:00:33;;;;;;;2.90;1.77;;;37.60;44.90;;;;;;5026420;28;20072;-76
2023/06/23 17:02:59;;;;;;;5.22;2.33;;;37.90;44.70;;;;;;5025850;28;20412;-75
2023/06/23 17:05:25;;;;;;;3.70;2.30;;;38.10;44.70;;;;;;5026630;28;20038;-74
2023/06/23 17:07:51;;;;;;;2.58;2.15;;;38.30;44.70;;;;;;5025927;28;20271;-75
2023/06/23 17:10:17;;;;;;;5.07;2.13;;;39.00;44.50;;;;;;5037051;28;20204;-73
2023/06/23 17:12:42;;;;;;;3.30;1.98;;;39.60;44.10;;;;;;5045443;28;20037;-75
2023/06/23 17:15:09;;;;;;;2.92;2.17;;;39.50;43.90;;;;;;5045874;28;20017;-74
2023/06/23 17:17:35;;;;;;;3.20;2.20;;;40.00;44.20;;;;;;5046113;28;20047;-75
2023/06/23 17:20:02;;;;;;;4.78;2.35;;;38.30;44.40;;;;;;5045539;28;20057;-73
2023/06/23 17:22:28;;;;;;;4.22;2.30;;;37.20;45.50;;;;;;5046160;28;20366;-74
2023/06/23 17:24:54;;;;;;;3.53;2.40;;;35.80;46.80;;;;;;5045701;28;20021;-74
2023/06/23 17:27:20;;;;;;;3.20;2.10;;;34.40;48.60;;;;;;5046236;28;20041;-74
2023/06/23 17:29:45;;;;;;;5.57;2.60;;;33.60;49.40;;;;;;5045865;28;20028;-73
2023/06/23 17:32:11;;;;;;;5.28;2.40;;;33.70;50.10;;;;;;5045812;28;20035;-77
2023/06/23 17:34:37;;;;;;;4.50;2.75;;;33.50;51.00;;;;;;5028139;28;20266;-74
2023/06/23 17:37:03;;;;;;;5.55;3.30;;;33.00;52.00;;;;;;5045340;28;20350;-75
2023/06/23 17:39:29;;;;;;;4.18;2.20;;;32.50;52.20;;;;;;5045364;28;20026;-73
2023/06/23 17:41:54;;;;;;;3.58;2.75;;;32.80;52.00;;;;;;5045256;28;20080;-75
2023/06/23 17:44:20;;;;;;;3.65;2.80;;;32.60;52.30;;;;;;5045296;28;20033;-71
2023/06/23 17:46:46;;;;;;;5.35;2.55;;;32.20;52.90;;;;;;5027081;28;20086;-73
2023/06/23 17:49:11;;;;;;;5.85;2.70;;;31.60;53.50;;;;;;5045790;28;20017;-74
2023/06/23 17:51:37;;;;;;;4.25;2.80;;;31.00;54.80;;;;;;5044625;28;20093;-74
2023/06/23 17:54:04;;;;;;;6.63;2.95;;;30.40;55.60;;;;;;5044913;28;20101;-74
2023/06/23 17:56:30;;;;;;;6.18;3.35;;;30.10;56.40;;;;;;5037468;28;20042;-73
2023/06/23 17:58:56;;;;;;;4.72;2.92;;;29.50;57.30;;;;;;5026370;28;20046;-73
2023/06/23 18:01:22;;;;;;;6.32;3.13;;;29.30;57.90;;;;;;5028023;28;20036;-73
2023/06/23 18:03:48;;;;;;;4.50;3.30;;;30.20;57.10;;;;;;5025020;28;20067;-74
2023/06/23 18:06:14;;;;;;;4.13;3.08;;;31.00;56.00;;;;;;5025158;28;20033;-75
2023/06/23 18:08:41;;;;;;;5.53;2.85;;;31.50;55.30;;;;;;5025244;28;20048;-75
2023/06/23 18:11:07;;;;;;;3.55;2.75;;;31.80;54.90;;;;;;5042081;28;20055;-75
2023/06/23 18:13:33;;;;;;;5.05;3.00;;;32.10;54.60;;;;;;5044852;28;20299;-75